Time;durP1;ratioP1;P1;durP2;ratioP2;P2;SDS_P1;SDS_P2;PMS_P1;PMS_P2;Temp;Humidity;BMP_temperature;BMP_pressure;BME280_temperature;BME280_humidity;BME280_pressure;Samples;Min_cycle;Max_cycle;Signal;HPM_P1;HPM_P2
2023/04/09 00:00:34;;;;;;;30.37;22.20;;;10.10;99.90;;;;;;5052494;28;20648;-78
2023/04/09 00:03:00;;;;;;;31.57;21.80;;;10.10;99.90;;;;;;5052247;28;20294;-78
2023/04/09 00:05:26;;;;;;;30.70;22.27;;;10.10;99.90;;;;;;5052363;28;20186;-78
2023/04/09 00:07:51;;;;;;;31.03;22.50;;;10.00;99.90;;;;;;5051566;28;20180;-79
2023/04/09 00:10:17;;;;;;;30.90;21.60;;;10.00;99.90;;;;;;5051881;28;20225;-78
2023/04/09 00:12:43;;;;;;;30.00;21.53;;;10.00;99.90;;;;;;5051643;28;20180;-78
2023/04/09 00:15:10;;;;;;;28.77;21.90;;;9.90;99.90;;;;;;5051831;28;20262;-78
2023/04/09 00:17:36;;;;;;;28.27;21.33;;;9.80;99.90;;;;;;5052508;28;20180;-77
2023/04/09 00:20:02;;;;;;;31.17;21.73;;;9.80;99.90;;;;;;5052293;28;20180;-79
2023/04/09 00:22:29;;;;;;;33.53;22.87;;;9.70;99.90;;;;;;5052403;28;20201;-77
2023/04/09 00:24:55;;;;;;;30.10;21.63;;;9.70;99.90;;;;;;5053114;28;20264;-79
2023/04/09 00:27:20;;;;;;;29.30;22.00;;;9.70;99.90;;;;;;5051797;28;20199;-78
2023/04/09 00:29:47;;;;;;;32.10;22.33;;;9.70;99.90;;;;;;5051179;28;20164;-78
2023/04/09 00:32:13;;;;;;;27.63;21.63;;;9.60;99.90;;;;;;5052055;28;20250;-78
2023/04/09 00:34:39;;;;;;;29.10;21.53;;;9.60;99.90;;;;;;5051266;28;20720;-80
2023/04/09 00:37:04;;;;;;;31.50;22.80;;;9.60;99.90;;;;;;5051609;28;20171;-77
2023/04/09 00:39:30;;;;;;;32.90;22.47;;;9.60;99.90;;;;;;5051951;28;20259;-76
2023/04/09 00:41:57;;;;;;;31.17;21.97;;;9.60;99.90;;;;;;5050848;28;20175;-78
2023/04/09 00:44:25;;;;;;;30.37;22.27;;;9.60;99.90;;;;;;5051190;28;20549;-78
2023/04/09 00:46:52;;;;;;;30.97;22.53;;;9.60;99.90;;;;;;5051413;28;20168;-78
2023/04/09 00:49:23;;;;;;;30.67;22.20;;;9.60;99.90;;;;;;5051455;28;20176;-78
2023/04/09 00:51:49;;;;;;;31.33;22.70;;;9.60;99.90;;;;;;5052675;28;20171;-77
2023/04/09 00:54:15;;;;;;;29.53;21.53;;;9.60;99.90;;;;;;5051572;28;20540;-78
2023/04/09 00:56:41;;;;;;;32.70;22.60;;;9.60;99.90;;;;;;5051503;28;20221;-77
2023/04/09 00:59:07;;;;;;;31.20;22.17;;;9.40;99.90;;;;;;5051548;28;20180;-77
2023/04/09 01:01:33;;;;;;;32.00;22.37;;;9.40;99.90;;;;;;5051793;28;20171;-78
2023/04/09 01:03:59;;;;;;;32.80;22.83;;;9.30;99.90;;;;;;5052624;28;20203;-80
2023/04/09 01:06:44;;;;;;;33.00;22.30;;;9.30;99.90;;;;;;5051307;28;20163;-79
2023/04/09 01:09:22;;;;;;;33.37;22.67;;;9.30;99.90;;;;;;5051670;28;20172;-81
2023/04/09 01:12:00;;;;;;;31.13;23.63;;;9.30;99.90;;;;;;5052168;28;20175;-81
2023/04/09 01:14:42;;;;;;;32.73;23.03;;;9.40;99.90;;;;;;5053448;28;20195;-79
2023/04/09 01:17:16;;;;;;;32.87;23.23;;;9.50;99.90;;;;;;5051196;28;20176;-80
2023/04/09 01:19:59;;;;;;;34.03;23.00;;;9.50;99.90;;;;;;5050989;28;20618;-80
2023/04/09 01:22:49;;;;;;;33.13;23.87;;;9.30;99.90;;;;;;5050536;28;20230;-80
2023/04/09 01:25:18;;;;;;;31.43;22.77;;;9.10;99.90;;;;;;5050100;28;20188;-80
2023/04/09 01:28:18;;;;;;;37.17;23.47;;;9.00;99.90;;;;;;5050834;28;20169;-79
2023/04/09 01:30:48;;;;;;;33.13;22.13;;;8.90;99.90;;;;;;5050602;28;20263;-79
2023/04/09 01:33:19;;;;;;;33.50;22.43;;;8.90;99.90;;;;;;5051071;28;20172;-80
2023/04/09 01:35:47;;;;;;;33.90;23.07;;;8.80;99.90;;;;;;5051332;28;20175;-80
2023/04/09 01:38:17;;;;;;;31.77;22.03;;;8.70;99.90;;;;;;5051080;28;20195;-81
2023/04/09 01:40:43;;;;;;;31.50;23.30;;;8.70;99.90;;;;;;5051515;28;20164;-78
2023/04/09 01:43:10;;;;;;;35.57;23.23;;;8.70;99.90;;;;;;5054597;28;20219;-80
2023/04/09 01:45:37;;;;;;;33.37;23.20;;;8.70;99.90;;;;;;5054943;28;20165;-79
2023/04/09 01:48:04;;;;;;;30.97;22.57;;;8.70;99.90;;;;;;5055061;28;20172;-79
2023/04/09 01:50:31;;;;;;;34.37;23.00;;;8.70;99.90;;;;;;5054772;28;20168;-80
2023/04/09 01:53:00;;;;;;;34.30;24.07;;;8.60;99.90;;;;;;5055478;28;20177;-79
2023/04/09 01:55:27;;;;;;;29.87;21.83;;;8.60;99.90;;;;;;5054717;28;20258;-78
2023/04/09 01:57:52;;;;;;;31.03;22.40;;;8.60;99.90;;;;;;5054828;28;20290;-80
2023/04/09 02:00:18;;;;;;;33.53;23.87;;;8.50;99.90;;;;;;5054674;28;20207;-78
2023/04/09 02:03:21;;;;;;;34.83;23.37;;;8.50;99.90;;;;;;5054280;28;20229;-79
2023/04/09 02:06:08;;;;;;;33.17;23.70;;;8.60;99.90;;;;;;5054603;28;20179;-79
2023/04/09 02:08:35;;;;;;;31.53;23.43;;;8.60;99.90;;;;;;5053715;28;20164;-79
2023/04/09 02:11:05;;;;;;;32.00;22.60;;;8.60;99.90;;;;;;5053918;28;20230;-80
2023/04/09 02:13:33;;;;;;;33.53;23.67;;;8.70;99.90;;;;;;5054483;28;20173;-80
2023/04/09 02:16:00;;;;;;;34.00;22.80;;;8.60;99.90;;;;;;5055502;28;20168;-80
2023/04/09 02:18:30;;;;;;;31.87;22.27;;;8.50;99.90;;;;;;5054009;28;20179;-80
2023/04/09 02:20:56;;;;;;;32.80;22.70;;;8.50;99.90;;;;;;5055947;28;20683;-79
2023/04/09 02:23:23;;;;;;;31.07;22.40;;;8.50;99.90;;;;;;5053830;28;20238;-80
2023/04/09 02:25:49;;;;;;;32.63;22.73;;;8.50;99.90;;;;;;5054541;28;20172;-79
2023/04/09 02:28:15;;;;;;;32.30;23.07;;;8.50;99.90;;;;;;5055810;28;20532;-78
2023/04/09 02:30:41;;;;;;;32.63;23.50;;;8.50;99.90;;;;;;5054145;28;20171;-78
2023/04/09 02:33:06;;;;;;;36.23;23.90;;;8.50;99.90;;;;;;5053421;28;20271;-79
2023/04/09 02:35:32;;;;;;;33.17;23.47;;;8.50;99.90;;;;;;5053017;28;20175;-78
2023/04/09 02:37:58;;;;;;;34.60;23.50;;;8.60;99.90;;;;;;5053019;28;20176;-79
2023/04/09 02:40:24;;;;;;;34.90;24.13;;;8.50;99.90;;;;;;5053039;28;20628;-79
2023/04/09 02:42:51;;;;;;;33.97;22.23;;;8.60;99.90;;;;;;5052979;28;20196;-81
2023/04/09 02:45:17;;;;;;;38.00;24.53;;;8.50;99.90;;;;;;5052968;28;20266;-79
2023/04/09 02:47:42;;;;;;;36.07;23.90;;;8.60;99.90;;;;;;5053491;28;20210;-80
2023/04/09 02:50:09;;;;;;;42.23;25.40;;;8.60;99.90;;;;;;5053529;28;20229;-78
2023/04/09 02:52:35;;;;;;;38.27;25.20;;;8.60;99.90;;;;;;5052208;28;20586;-81
2023/04/09 02:55:01;;;;;;;39.23;25.07;;;8.60;99.90;;;;;;5054351;28;20179;-79
2023/04/09 02:57:26;;;;;;;41.53;25.40;;;8.60;99.90;;;;;;5053352;28;20191;-80
2023/04/09 02:59:52;;;;;;;39.60;25.40;;;8.60;99.90;;;;;;5053713;28;20208;-79
2023/04/09 03:02:24;;;;;;;41.67;26.07;;;8.60;99.90;;;;;;5053760;28;20286;-79
2023/04/09 03:04:51;;;;;;;39.63;25.07;;;8.60;99.90;;;;;;5053902;28;20204;-79
2023/04/09 03:07:18;;;;;;;42.93;26.30;;;8.60;99.90;;;;;;5053290;28;20545;-79
2023/04/09 03:09:44;;;;;;;42.53;26.33;;;8.60;99.90;;;;;;5055360;28;20167;-79
2023/04/09 03:12:10;;;;;;;41.87;26.20;;;8.60;99.90;;;;;;5053385;28;20263;-80
2023/04/09 03:14:35;;;;;;;45.70;27.77;;;8.60;99.90;;;;;;5054272;28;20172;-81
2023/04/09 03:17:01;;;;;;;49.47;29.80;;;8.70;99.90;;;;;;5053501;28;20512;-80
2023/04/09 03:19:30;;;;;;;44.93;26.57;;;8.80;99.90;;;;;;5053544;28;20279;-81
2023/04/09 03:21:55;;;;;;;50.70;30.43;;;8.70;99.90;;;;;;5053517;28;20656;-80
2023/04/09 03:24:21;;;;;;;47.20;30.07;;;8.90;99.90;;;;;;5053460;28;20172;-80
2023/04/09 03:26:47;;;;;;;53.70;30.07;;;8.80;99.90;;;;;;5053521;28;20176;-81
2023/04/09 03:29:14;;;;;;;50.10;30.43;;;8.70;99.90;;;;;;5053192;28;20164;-80
2023/04/09 03:31:40;;;;;;;50.30;30.47;;;8.60;99.90;;;;;;5053414;28;20652;-80
2023/04/09 03:34:05;;;;;;;54.97;31.37;;;8.60;99.90;;;;;;5052233;28;20176;-80
2023/04/09 03:36:31;;;;;;;57.03;32.23;;;8.50;99.90;;;;;;5053206;28;20175;-79
2023/04/09 03:38:57;;;;;;;55.57;32.83;;;8.60;99.90;;;;;;5053329;28;20181;-80
2023/04/09 03:41:23;;;;;;;55.90;33.23;;;8.70;99.90;;;;;;5054034;28;20182;-81
2023/04/09 03:43:48;;;;;;;62.27;34.83;;;8.60;99.90;;;;;;5052749;28;20209;-81
2023/04/09 03:46:15;;;;;;;61.47;33.63;;;8.70;99.90;;;;;;5053468;28;20200;-80
2023/04/09 03:48:41;;;;;;;59.43;35.00;;;8.60;99.90;;;;;;5051761;28;20241;-80
2023/04/09 03:51:14;;;;;;;59.70;34.30;;;8.60;99.90;;;;;;5052635;28;20184;-81
2023/04/09 03:53:40;;;;;;;60.27;35.23;;;8.60;99.90;;;;;;5053110;28;20164;-80
2023/04/09 03:56:07;;;;;;;63.93;34.20;;;8.60;99.90;;;;;;5053449;28;20275;-80
2023/04/09 03:58:32;;;;;;;58.87;35.20;;;8.60;99.90;;;;;;5053219;28;20191;-80
2023/04/09 04:00:59;;;;;;;58.97;34.33;;;8.50;99.90;;;;;;5052212;28;20225;-80
2023/04/09 04:03:27;;;;;;;55.67;33.47;;;8.50;99.90;;;;;;5053302;28;20282;-80
2023/04/09 04:05:53;;;;;;;58.43;35.27;;;8.50;99.90;;;;;;5051508;28;20266;-80
2023/04/09 04:08:20;;;;;;;63.90;34.77;;;8.60;99.90;;;;;;5052476;28;20270;-80
2023/04/09 04:10:46;;;;;;;60.30;34.90;;;8.60;99.90;;;;;;5053492;28;20174;-80
2023/04/09 04:13:13;;;;;;;62.03;36.40;;;8.50;99.90;;;;;;5052342;28;20184;-80
2023/04/09 04:15:40;;;;;;;58.53;33.90;;;8.50;99.90;;;;;;5052544;28;20568;-80
2023/04/09 04:18:06;;;;;;;59.53;34.03;;;8.60;99.90;;;;;;5052582;28;20170;-79
2023/04/09 04:20:33;;;;;;;65.87;34.20;;;8.50;99.90;;;;;;5052360;28;20180;-79
2023/04/09 04:22:58;;;;;;;57.37;33.53;;;8.50;99.90;;;;;;5052487;28;20217;-79
2023/04/09 04:25:25;;;;;;;63.63;32.97;;;8.50;99.90;;;;;;5052444;28;20160;-80
2023/04/09 04:27:51;;;;;;;56.43;33.03;;;8.40;99.90;;;;;;5053855;28;20191;-79
2023/04/09 04:30:18;;;;;;;59.27;35.03;;;8.30;99.90;;;;;;5054100;28;20156;-79
2023/04/09 04:32:43;;;;;;;55.13;31.83;;;8.30;99.90;;;;;;5051717;28;20259;-76
2023/04/09 04:35:09;;;;;;;55.37;31.87;;;8.30;99.90;;;;;;5052223;28;20199;-77
2023/04/09 04:37:34;;;;;;;62.37;35.50;;;8.30;99.90;;;;;;5050972;28;20183;-76
2023/04/09 04:40:03;;;;;;;69.97;38.50;;;8.30;99.90;;;;;;5052583;28;20650;-76
2023/04/09 04:42:30;;;;;;;67.00;37.90;;;8.70;99.90;;;;;;5051071;28;20198;-78
2023/04/09 04:44:56;;;;;;;71.13;39.33;;;8.60;99.90;;;;;;5051226;28;20171;-78
2023/04/09 04:47:22;;;;;;;65.20;36.57;;;8.50;99.90;;;;;;5050659;28;20164;-78
2023/04/09 04:49:48;;;;;;;69.67;37.30;;;8.40;99.90;;;;;;5050919;28;20215;-78
2023/04/09 04:52:14;;;;;;;58.80;33.60;;;8.30;99.90;;;;;;5051034;28;20169;-79
2023/04/09 04:54:39;;;;;;;60.77;35.33;;;8.40;99.90;;;;;;5050932;28;20171;-77
2023/04/09 04:57:05;;;;;;;63.57;34.83;;;8.30;99.90;;;;;;5051089;28;20193;-78
2023/04/09 04:59:31;;;;;;;66.30;36.87;;;8.30;99.90;;;;;;5050959;28;20536;-77
2023/04/09 05:01:57;;;;;;;59.67;33.40;;;8.20;99.90;;;;;;5050539;28;20201;-77
2023/04/09 05:04:22;;;;;;;64.63;36.60;;;8.10;99.90;;;;;;5050838;28;20168;-76
2023/04/09 05:06:49;;;;;;;67.53;36.80;;;8.20;99.90;;;;;;5052202;28;20683;-78
2023/04/09 05:09:16;;;;;;;63.50;35.80;;;8.30;99.90;;;;;;5050985;28;20178;-78
2023/04/09 05:11:41;;;;;;;62.80;33.93;;;8.20;99.90;;;;;;5052202;28;20245;-77
2023/04/09 05:14:07;;;;;;;54.17;31.47;;;8.20;99.90;;;;;;5050931;28;20172;-77
2023/04/09 05:16:33;;;;;;;59.37;34.30;;;8.30;99.90;;;;;;5052091;28;20182;-78
2023/04/09 05:18:58;;;;;;;62.67;35.27;;;8.30;99.90;;;;;;5055532;28;20186;-77
2023/04/09 05:21:24;;;;;;;58.20;34.00;;;8.20;99.90;;;;;;5055321;28;20176;-77
2023/04/09 05:23:50;;;;;;;56.17;32.70;;;8.00;99.90;;;;;;5054998;28;20203;-78
2023/04/09 05:26:15;;;;;;;50.60;31.37;;;8.10;99.90;;;;;;5055451;28;20183;-77
2023/04/09 05:28:41;;;;;;;54.00;32.60;;;8.20;99.90;;;;;;5055157;28;20612;-78
2023/04/09 05:31:11;;;;;;;50.67;31.03;;;8.00;99.90;;;;;;5054433;28;20266;-76
2023/04/09 05:33:40;;;;;;;55.63;32.57;;;8.20;99.90;;;;;;5056158;28;20544;-76
2023/04/09 05:36:06;;;;;;;56.93;33.13;;;8.30;99.90;;;;;;5054647;28;20187;-77
2023/04/09 05:38:32;;;;;;;63.10;33.77;;;8.30;99.90;;;;;;5054573;28;20589;-77
2023/04/09 05:40:58;;;;;;;56.93;32.83;;;8.20;99.90;;;;;;5055970;28;20188;-78
2023/04/09 05:43:23;;;;;;;55.37;30.17;;;8.20;99.90;;;;;;5054935;28;20195;-78
2023/04/09 05:45:49;;;;;;;59.67;32.20;;;8.20;99.90;;;;;;5054739;28;20229;-77
2023/04/09 05:48:17;;;;;;;58.53;33.13;;;8.30;99.90;;;;;;5054756;28;20613;-77
2023/04/09 05:50:52;;;;;;;62.00;34.03;;;8.30;99.90;;;;;;5054263;28;20172;-77
2023/04/09 05:53:19;;;;;;;59.37;33.60;;;8.40;99.90;;;;;;5054268;28;20194;-78
2023/04/09 05:55:50;;;;;;;59.70;35.53;;;8.40;99.90;;;;;;5053750;28;20607;-76
2023/04/09 05:58:17;;;;;;;61.57;35.73;;;8.40;99.90;;;;;;5053583;28;21908;-77
2023/04/09 06:00:43;;;;;;;64.13;36.73;;;8.50;99.90;;;;;;5053748;28;20672;-76
2023/04/09 06:03:09;;;;;;;60.43;35.30;;;8.50;99.90;;;;;;5053831;28;20347;-78
2023/04/09 06:05:34;;;;;;;62.57;35.70;;;8.50;99.90;;;;;;5054384;28;20165;-76
2023/04/09 06:08:01;;;;;;;62.33;34.80;;;8.70;99.90;;;;;;5054237;28;20173;-76
2023/04/09 06:10:27;;;;;;;63.50;34.83;;;8.70;99.90;;;;;;5054706;28;20175;-78
2023/04/09 06:12:53;;;;;;;64.90;35.70;;;8.70;99.90;;;;;;5055474;28;20253;-76
2023/04/09 06:15:19;;;;;;;68.47;37.50;;;8.70;99.90;;;;;;5055677;28;20169;-78
2023/04/09 06:17:45;;;;;;;63.67;36.80;;;8.70;99.90;;;;;;5054844;28;20176;-80
2023/04/09 06:20:12;;;;;;;69.40;37.93;;;8.90;99.90;;;;;;5055236;28;20202;-77
2023/04/09 06:22:37;;;;;;;68.47;38.13;;;8.90;99.90;;;;;;5055170;28;20286;-77
2023/04/09 06:25:06;;;;;;;72.63;39.97;;;8.80;99.90;;;;;;5054782;28;20348;-76
2023/04/09 06:27:34;;;;;;;67.80;37.67;;;8.80;99.90;;;;;;5054262;28;20165;-79
2023/04/09 06:29:59;;;;;;;62.77;36.90;;;8.80;99.90;;;;;;5055341;28;20152;-78
2023/04/09 06:32:25;;;;;;;61.47;36.77;;;8.90;99.90;;;;;;5055061;28;20206;-78
2023/04/09 06:34:51;;;;;;;68.57;37.70;;;8.90;99.90;;;;;;5053823;28;20255;-79
2023/04/09 06:37:16;;;;;;;61.77;36.73;;;8.90;99.90;;;;;;5053544;28;20179;-79
2023/04/09 06:39:42;;;;;;;68.87;36.37;;;9.10;99.90;;;;;;5053288;28;20169;-79
2023/04/09 06:42:07;;;;;;;65.47;36.97;;;9.10;99.90;;;;;;5052834;28;20192;-78
2023/04/09 06:44:34;;;;;;;62.60;37.47;;;9.20;99.90;;;;;;5053379;28;20168;-80
2023/04/09 06:46:59;;;;;;;66.87;37.07;;;9.20;99.90;;;;;;5053133;28;20647;-77
2023/04/09 06:49:26;;;;;;;60.17;36.63;;;9.20;99.90;;;;;;5053549;28;20176;-78
2023/04/09 06:51:52;;;;;;;67.13;38.67;;;9.40;99.90;;;;;;5052528;28;20176;-79
2023/04/09 06:54:19;;;;;;;61.43;36.53;;;9.30;99.90;;;;;;5054248;28;20180;-77
2023/04/09 06:56:45;;;;;;;61.37;36.77;;;9.60;99.90;;;;;;5054954;28;20188;-77
2023/04/09 06:59:10;;;;;;;59.40;35.33;;;9.50;99.90;;;;;;5055679;28;20585;-76
2023/04/09 07:01:37;;;;;;;58.97;36.47;;;9.50;99.90;;;;;;5053995;28;20199;-78
2023/04/09 07:04:03;;;;;;;59.90;36.50;;;9.50;99.90;;;;;;5053382;28;20199;-78
2023/04/09 07:06:29;;;;;;;61.67;35.70;;;9.60;99.90;;;;;;5053098;28;20176;-78
2023/04/09 07:08:55;;;;;;;62.17;36.40;;;9.70;99.90;;;;;;5053858;28;20472;-80
2023/04/09 07:11:20;;;;;;;61.20;36.77;;;9.80;99.90;;;;;;5052059;28;20242;-79
2023/04/09 07:13:47;;;;;;;52.97;33.20;;;9.90;99.90;;;;;;5051519;28;20200;-78
2023/04/09 07:16:13;;;;;;;61.93;36.90;;;10.00;99.90;;;;;;5051980;28;20182;-78
2023/04/09 07:18:40;;;;;;;59.40;36.00;;;10.10;99.90;;;;;;5052368;28;20190;-78
2023/04/09 07:21:05;;;;;;;52.47;33.53;;;10.10;99.90;;;;;;5053276;28;20282;-78
2023/04/09 07:23:35;;;;;;;55.27;34.20;;;10.30;99.90;;;;;;5053149;28;20278;-78
2023/04/09 07:26:05;;;;;;;52.73;31.47;;;10.30;99.90;;;;;;5052818;28;20633;-79
2023/04/09 07:28:30;;;;;;;52.00;31.90;;;10.40;99.90;;;;;;5053001;28;20170;-76
2023/04/09 07:30:56;;;;;;;55.53;33.30;;;10.70;99.90;;;;;;5053751;28;20207;-77
2023/04/09 07:33:22;;;;;;;48.53;30.77;;;10.70;99.90;;;;;;5054209;28;20179;-78
2023/04/09 07:35:48;;;;;;;54.27;32.17;;;10.70;99.90;;;;;;5052908;28;20180;-77
2023/04/09 07:38:13;;;;;;;51.23;31.60;;;10.70;99.90;;;;;;5053426;28;20170;-78
2023/04/09 07:40:39;;;;;;;51.20;31.30;;;10.80;99.90;;;;;;5050694;28;20221;-79
2023/04/09 07:43:05;;;;;;;50.70;30.60;;;11.00;99.90;;;;;;5053177;28;20270;-78
2023/04/09 07:45:31;;;;;;;50.10;29.10;;;11.20;99.90;;;;;;5052213;28;20642;-77
2023/04/09 07:47:56;;;;;;;46.80;28.60;;;11.10;99.90;;;;;;5051831;28;20176;-77
2023/04/09 07:50:22;;;;;;;49.27;29.47;;;11.20;99.90;;;;;;5051969;28;20693;-78
2023/04/09 07:52:48;;;;;;;44.53;27.53;;;11.40;99.90;;;;;;5039448;28;20240;-77
2023/04/09 07:55:14;;;;;;;44.60;27.53;;;11.50;99.90;;;;;;5032522;28;20201;-77
2023/04/09 07:57:39;;;;;;;45.80;27.87;;;11.50;99.90;;;;;;5034814;28;20261;-77
2023/04/09 08:00:06;;;;;;;48.53;28.77;;;11.50;99.90;;;;;;5052960;28;20191;-77
2023/04/09 08:02:31;;;;;;;48.70;29.83;;;11.50;99.90;;;;;;5052922;28;20539;-76
2023/04/09 08:04:57;;;;;;;44.60;27.97;;;11.50;99.90;;;;;;5052806;28;20181;-77
2023/04/09 08:07:23;;;;;;;46.60;28.60;;;11.60;99.90;;;;;;5052946;28;20205;-77
2023/04/09 08:09:49;;;;;;;45.47;27.77;;;11.70;99.90;;;;;;5052763;28;20179;-79
2023/04/09 08:12:15;;;;;;;44.83;26.57;;;11.70;99.90;;;;;;5052208;28;20175;-76
2023/04/09 08:14:40;;;;;;;49.03;28.40;;;11.80;99.90;;;;;;5053505;28;20237;-77
2023/04/09 08:17:06;;;;;;;42.53;26.23;;;12.00;99.90;;;;;;5051958;28;20243;-77
2023/04/09 08:19:31;;;;;;;44.40;26.80;;;12.10;99.90;;;;;;5052283;28;20183;-76
2023/04/09 08:21:57;;;;;;;40.43;26.20;;;12.20;99.90;;;;;;5052419;28;20191;-77
2023/04/09 08:24:23;;;;;;;44.70;26.37;;;12.40;99.90;;;;;;5052034;28;20206;-79
2023/04/09 08:26:48;;;;;;;39.33;25.77;;;12.40;99.90;;;;;;5051919;28;20654;-78
2023/04/09 08:29:15;;;;;;;41.13;25.83;;;12.60;99.90;;;;;;5052336;28;20232;-78
2023/04/09 08:31:41;;;;;;;38.90;25.60;;;12.60;99.90;;;;;;5052244;28;20632;-76
2023/04/09 08:34:07;;;;;;;41.77;27.03;;;12.90;99.90;;;;;;5053835;28;20168;-78
2023/04/09 08:36:34;;;;;;;40.83;25.63;;;13.00;99.90;;;;;;5051635;28;20180;-77
2023/04/09 08:39:00;;;;;;;45.50;26.63;;;13.10;99.90;;;;;;5051196;28;20171;-76
2023/04/09 08:41:28;;;;;;;42.60;25.63;;;13.10;99.90;;;;;;5051552;28;20536;-77
2023/04/09 08:43:55;;;;;;;42.47;25.73;;;13.10;99.90;;;;;;5051485;28;20205;-77
2023/04/09 08:46:22;;;;;;;41.07;26.23;;;13.10;99.90;;;;;;5051489;28;20180;-78
2023/04/09 08:48:50;;;;;;;40.10;25.97;;;13.20;99.90;;;;;;5052091;28;20179;-77
2023/04/09 08:51:20;;;;;;;41.93;26.83;;;13.40;99.90;;;;;;5053091;28;20706;-76
2023/04/09 08:53:51;;;;;;;38.93;25.40;;;13.60;99.90;;;;;;5060144;28;20171;-76
2023/04/09 08:56:17;;;;;;;39.70;25.10;;;13.60;99.90;;;;;;5057736;28;20199;-78
2023/04/09 08:58:44;;;;;;;40.47;25.63;;;13.70;99.90;;;;;;5047352;28;20189;-79
2023/04/09 09:01:30;;;;;;;38.10;24.93;;;13.70;99.90;;;;;;5053486;28;20229;-78
2023/04/09 09:04:03;;;;;;;42.10;26.97;;;13.80;99.90;;;;;;5066402;28;20646;-78
2023/04/09 09:06:31;;;;;;;41.37;26.83;;;13.90;99.90;;;;;;5059437;28;20178;-79
2023/04/09 09:09:07;;;;;;;42.80;26.93;;;14.00;99.90;;;;;;5057818;28;20632;-78
2023/04/09 09:11:39;;;;;;;42.63;26.50;;;14.00;99.90;;;;;;5058262;28;20167;-77
2023/04/09 09:14:06;;;;;;;38.93;25.50;;;13.90;99.90;;;;;;5058310;28;20216;-77
2023/04/09 09:16:34;;;;;;;39.80;27.07;;;13.90;99.90;;;;;;5059531;28;20175;-78
2023/04/09 09:19:01;;;;;;;40.83;25.17;;;13.90;99.90;;;;;;5059499;28;20663;-79
2023/04/09 09:21:28;;;;;;;41.47;27.10;;;13.90;99.90;;;;;;5057567;28;20258;-77
2023/04/09 09:23:53;;;;;;;40.20;25.47;;;13.90;99.90;;;;;;5057583;28;20233;-77
2023/04/09 09:26:28;;;;;;;39.00;25.67;;;14.00;99.90;;;;;;5058853;28;20172;-79
2023/04/09 09:29:00;;;;;;;37.87;25.90;;;14.00;99.90;;;;;;5058129;28;20175;-78
2023/04/09 09:31:26;;;;;;;46.27;26.17;;;14.20;99.90;;;;;;5058522;28;20172;-78
2023/04/09 09:33:53;;;;;;;38.47;24.90;;;14.20;99.90;;;;;;5057899;28;20660;-78
2023/04/09 09:36:34;;;;;;;36.53;24.73;;;14.20;99.90;;;;;;5058020;28;20186;-77
2023/04/09 09:39:02;;;;;;;34.07;22.70;;;14.20;99.90;;;;;;5057802;28;20182;-77
2023/04/09 09:41:30;;;;;;;36.67;24.30;;;14.30;99.90;;;;;;5059171;28;20159;-78
2023/04/09 09:43:56;;;;;;;35.10;23.90;;;14.30;99.90;;;;;;5058296;28;20195;-79
2023/04/09 09:46:25;;;;;;;34.57;23.03;;;14.50;99.90;;;;;;5058682;28;20314;-78
2023/04/09 09:48:50;;;;;;;32.83;22.00;;;14.60;99.90;;;;;;5058198;28;20532;-78
2023/04/09 09:51:18;;;;;;;37.30;22.93;;;14.60;99.90;;;;;;5057464;28;20175;-78
2023/04/09 09:53:51;;;;;;;31.10;20.40;;;14.70;99.90;;;;;;5057808;28;20932;-76
2023/04/09 09:56:31;;;;;;;30.17;19.87;;;14.80;99.90;;;;;;5057044;28;20175;-77
2023/04/09 09:59:06;;;;;;;28.63;18.27;;;15.00;99.90;;;;;;5057397;28;20179;-78
2023/04/09 10:01:34;;;;;;;30.43;19.40;;;15.20;99.90;;;;;;5057205;28;20167;-78
2023/04/09 10:04:01;;;;;;;31.60;19.60;;;15.30;99.90;;;;;;5055786;28;20233;-78
2023/04/09 10:06:29;;;;;;;29.40;19.23;;;15.20;99.90;;;;;;5055266;28;20217;-77
2023/04/09 10:08:57;;;;;;;29.23;20.33;;;15.00;99.90;;;;;;5055926;28;20168;-77
2023/04/09 10:11:24;;;;;;;30.97;19.13;;;14.90;99.90;;;;;;5051104;28;20170;-79
2023/04/09 10:13:55;;;;;;;27.23;18.70;;;15.00;99.90;;;;;;5054425;28;20573;-78
2023/04/09 10:16:22;;;;;;;29.10;18.03;;;15.10;99.90;;;;;;5055831;28;20621;-77
2023/04/09 10:18:47;;;;;;;29.63;18.87;;;15.10;99.90;;;;;;5053894;28;20691;-78
2023/04/09 10:21:30;;;;;;;28.37;19.03;;;15.20;99.90;;;;;;5053466;28;20172;-78
2023/04/09 10:23:56;;;;;;;26.93;18.97;;;15.10;99.90;;;;;;5053777;28;20206;-77
2023/04/09 10:26:26;;;;;;;27.20;18.80;;;14.90;99.90;;;;;;5054406;28;20213;-76
2023/04/09 10:29:15;;;;;;;28.67;18.67;;;15.10;99.90;;;;;;5054650;28;20302;-78
2023/04/09 10:32:03;;;;;;;27.77;18.67;;;15.30;99.90;;;;;;5055953;28;20548;-78
2023/04/09 10:34:34;;;;;;;30.47;19.20;;;15.50;99.90;;;;;;5054747;28;20199;-80
2023/04/09 10:37:01;;;;;;;24.73;17.90;;;15.60;99.90;;;;;;5055820;28;20145;-78
2023/04/09 10:39:31;;;;;;;25.10;17.10;;;15.80;99.90;;;;;;5054545;28;20233;-78
2023/04/09 10:42:06;;;;;;;23.57;15.00;;;16.20;99.90;;;;;;5055792;28;20199;-78
2023/04/09 10:44:34;;;;;;;25.10;15.63;;;16.30;99.90;;;;;;5054226;28;20308;-77
2023/04/09 10:47:02;;;;;;;23.43;16.03;;;16.30;99.90;;;;;;5053332;28;20162;-77
2023/04/09 10:49:35;;;;;;;22.00;16.20;;;16.40;99.90;;;;;;5054988;28;20256;-78
2023/04/09 10:52:09;;;;;;;23.60;15.37;;;16.60;99.90;;;;;;5054094;28;20169;-77
2023/04/09 10:54:42;;;;;;;23.97;14.70;;;16.60;99.90;;;;;;5055741;28;20615;-77
2023/04/09 10:57:12;;;;;;;21.27;14.60;;;16.80;99.90;;;;;;5053937;28;20193;-75
2023/04/09 10:59:41;;;;;;;22.40;15.40;;;17.00;99.90;;;;;;5053870;28;20176;-78
2023/04/09 11:02:35;;;;;;;24.40;16.57;;;16.80;99.90;;;;;;5055184;28;20252;-78
2023/04/09 11:05:23;;;;;;;24.33;17.37;;;17.10;99.90;;;;;;5053507;28;20237;-76
2023/04/09 11:08:02;;;;;;;19.77;16.03;;;17.70;99.90;;;;;;5053405;28;20171;-78
2023/04/09 11:10:28;;;;;;;21.90;16.23;;;18.20;99.40;;;;;;5053913;28;20194;-77
2023/04/09 11:12:53;;;;;;;23.00;16.70;;;18.60;98.40;;;;;;5054494;28;20175;-77
2023/04/09 11:15:19;;;;;;;19.83;14.90;;;19.00;97.20;;;;;;5053178;28;20575;-78
2023/04/09 11:17:46;;;;;;;21.47;15.30;;;18.90;97.00;;;;;;5053246;28;20179;-75
2023/04/09 11:20:19;;;;;;;20.73;15.67;;;18.90;96.80;;;;;;5055114;28;20541;-78
2023/04/09 11:22:45;;;;;;;21.50;15.77;;;19.30;96.50;;;;;;5053665;28;20244;-77
2023/04/09 11:25:25;;;;;;;21.63;15.57;;;19.40;95.70;;;;;;5053471;28;20576;-78
2023/04/09 11:27:51;;;;;;;18.60;13.53;;;19.40;96.00;;;;;;5053093;28;20172;-78
2023/04/09 11:30:17;;;;;;;19.63;14.20;;;19.80;95.50;;;;;;5053430;28;20172;-78
2023/04/09 11:32:45;;;;;;;16.90;12.40;;;20.40;94.90;;;;;;5053276;28;20594;-77
2023/04/09 11:35:19;;;;;;;18.37;13.60;;;20.20;94.50;;;;;;5053331;28;20176;-78
2023/04/09 11:37:46;;;;;;;18.90;14.87;;;19.80;95.30;;;;;;5052909;28;20175;-78
2023/04/09 11:40:23;;;;;;;20.50;13.87;;;19.60;95.20;;;;;;5053582;28;20222;-77
2023/04/09 11:42:53;;;;;;;20.70;14.53;;;19.60;95.00;;;;;;5054812;28;20195;-77
2023/04/09 11:45:21;;;;;;;21.23;14.03;;;19.80;95.20;;;;;;5053351;28;20172;-76
2023/04/09 11:47:47;;;;;;;20.17;14.43;;;19.90;94.30;;;;;;5052687;28;20176;-77
2023/04/09 11:50:14;;;;;;;18.23;13.13;;;20.20;94.50;;;;;;5053024;28;20168;-78
2023/04/09 11:52:40;;;;;;;20.30;14.00;;;20.70;93.80;;;;;;5053317;28;20648;-77
2023/04/09 11:55:08;;;;;;;19.50;14.03;;;19.70;95.00;;;;;;5053192;28;20653;-77
2023/04/09 11:57:44;;;;;;;18.17;13.40;;;19.30;95.10;;;;;;5053890;28;20195;-77
2023/04/09 12:00:15;;;;;;;18.10;12.97;;;19.60;95.30;;;;;;5054390;28;20213;-76
2023/04/09 12:02:49;;;;;;;18.63;13.50;;;20.50;94.40;;;;;;5053771;28;20235;-79
2023/04/09 12:05:27;;;;;;;17.43;12.27;;;21.50;93.00;;;;;;5052440;28;20560;-78
2023/04/09 12:07:58;;;;;;;15.43;11.70;;;21.20;92.60;;;;;;5052374;28;20199;-78
2023/04/09 12:10:32;;;;;;;15.53;11.37;;;21.70;91.60;;;;;;5052734;28;20164;-78
2023/04/09 12:13:12;;;;;;;14.50;12.07;;;22.20;91.40;;;;;;5052065;28;20445;-78
2023/04/09 12:15:42;;;;;;;17.20;11.93;;;23.00;90.20;;;;;;5052646;28;20178;-79
2023/04/09 12:18:09;;;;;;;14.87;11.90;;;22.70;89.00;;;;;;5053514;28;20172;-77
2023/04/09 12:20:38;;;;;;;14.33;11.60;;;22.20;89.60;;;;;;5052285;28;20164;-78
2023/04/09 12:23:05;;;;;;;15.10;12.40;;;22.00;90.50;;;;;;5052401;28;20256;-77
2023/04/09 12:25:43;;;;;;;15.27;12.47;;;21.40;90.60;;;;;;5052259;28;20629;-79
2023/04/09 12:28:15;;;;;;;17.27;12.97;;;21.30;91.00;;;;;;5053510;28;20175;-78
2023/04/09 12:30:42;;;;;;;16.43;11.87;;;21.50;90.70;;;;;;5053971;28;20167;-77
2023/04/09 12:33:08;;;;;;;16.33;11.93;;;22.10;90.30;;;;;;5053483;28;20168;-77
2023/04/09 12:35:33;;;;;;;16.93;11.43;;;23.00;88.70;;;;;;5052404;28;20202;-78
2023/04/09 12:37:59;;;;;;;14.90;11.00;;;24.20;87.00;;;;;;5051291;28;20176;-77